createdAt,value
2018-01-06T00:02:15.903Z,2.57
2018-01-06T00:04:44.255Z,4.50
2018-01-06T00:07:12.642Z,2.10
2018-01-06T00:09:40.987Z,3.00
2018-01-06T00:12:09.367Z,2.77
2018-01-06T00:14:37.732Z,3.47
2018-01-06T00:17:06.101Z,2.50
2018-01-06T00:19:34.454Z,2.87
2018-01-06T00:22:02.867Z,3.50
2018-01-06T00:24:31.325Z,2.90
2018-01-06T00:26:59.675Z,2.80
2018-01-06T00:29:28.051Z,3.67
2018-01-06T00:31:56.531Z,2.60
2018-01-06T00:34:24.891Z,3.50
2018-01-06T00:36:53.247Z,2.30
2018-01-06T00:39:21.646Z,2.13
2018-01-06T00:41:50.032Z,1.90
2018-01-06T00:44:18.404Z,2.40
2018-01-06T00:46:46.777Z,2.93
2018-01-06T00:49:15.163Z,2.10
2018-01-06T00:51:43.561Z,2.28
2018-01-06T00:54:11.915Z,2.78
2018-01-06T00:56:40.348Z,5.05
2018-01-06T00:59:08.774Z,2.58
2018-01-06T01:01:37.127Z,2.80
2018-01-06T01:04:05.523Z,2.12
2018-01-06T01:06:33.971Z,2.75
2018-01-06T01:09:02.335Z,2.90
2018-01-06T01:11:30.695Z,3.17
2018-01-06T01:13:59.074Z,2.80
2018-01-06T01:16:27.560Z,2.40
2018-01-06T01:18:55.922Z,2.60
2018-01-06T01:21:24.350Z,1.92
2018-01-06T01:23:52.733Z,2.35
2018-01-06T01:26:21.116Z,2.78
2018-01-06T01:28:49.496Z,2.83
2018-01-06T01:31:17.888Z,3.65
2018-01-06T01:33:46.267Z,1.95
2018-01-06T01:36:14.666Z,2.55
2018-01-06T01:38:43.038Z,2.30
2018-01-06T01:41:11.390Z,2.03
2018-01-06T01:43:39.756Z,2.80
2018-01-06T01:46:08.114Z,2.80
2018-01-06T01:48:36.594Z,2.35
2018-01-06T01:51:05.017Z,4.62
2018-01-06T01:53:33.383Z,2.30
2018-01-06T01:56:01.914Z,2.60
2018-01-06T01:58:30.284Z,2.17
2018-01-06T02:00:58.683Z,2.50
2018-01-06T02:03:27.100Z,1.95
2018-01-06T02:05:55.452Z,2.00
2018-01-06T02:08:23.803Z,1.58
2018-01-06T02:10:52.169Z,2.12
2018-01-06T02:13:20.542Z,2.00
2018-01-06T02:15:48.924Z,2.15
2018-01-06T02:18:17.313Z,2.33
2018-01-06T02:20:45.663Z,2.15
2018-01-06T02:23:14.044Z,1.92
2018-01-06T02:25:42.434Z,2.20
2018-01-06T02:28:10.827Z,2.40
2018-01-06T02:30:39.220Z,2.90
2018-01-06T02:33:07.587Z,1.95
2018-01-06T02:35:35.949Z,1.70
2018-01-06T02:38:04.406Z,2.20
2018-01-06T02:40:32.768Z,2.03
2018-01-06T02:43:01.171Z,2.20
2018-01-06T02:45:29.551Z,1.80
2018-01-06T02:47:57.915Z,2.65
2018-01-06T02:50:26.295Z,2.30
2018-01-06T02:52:54.750Z,5.90
2018-01-06T02:55:23.131Z,3.00
2018-01-06T02:57:51.486Z,4.55
2018-01-06T03:00:19.859Z,2.55
2018-01-06T03:02:48.224Z,6.50
2018-01-06T03:05:17.391Z,5.05
2018-01-06T03:07:45.783Z,2.15
2018-01-06T03:10:14.134Z,2.47
2018-01-06T03:12:42.495Z,1.87
2018-01-06T03:15:10.856Z,2.70
2018-01-06T03:17:39.215Z,1.83
2018-01-06T03:20:07.635Z,1.95
2018-01-06T03:22:35.991Z,2.37
2018-01-06T03:25:04.391Z,2.65
2018-01-06T03:27:32.786Z,3.10
2018-01-06T03:30:01.185Z,1.95
2018-01-06T03:32:29.548Z,2.30
2018-01-06T03:34:57.939Z,1.98
2018-01-06T03:37:26.304Z,2.53
2018-01-06T03:39:54.670Z,3.00
2018-01-06T03:42:23.047Z,2.60
2018-01-06T03:44:51.485Z,2.17
2018-01-06T03:47:19.847Z,2.53
2018-01-06T03:49:48.205Z,1.85
2018-01-06T03:52:16.592Z,2.28
2018-01-06T03:54:44.955Z,2.90
2018-01-06T03:57:13.300Z,2.80
2018-01-06T03:59:41.656Z,4.12
2018-01-06T04:02:10.061Z,3.17
2018-01-06T04:04:38.411Z,4.97
2018-01-06T04:07:06.808Z,6.20
2018-01-06T04:09:35.173Z,5.32
2018-01-06T04:12:03.547Z,2.87
2018-01-06T04:14:31.929Z,2.00
2018-01-06T04:17:00.304Z,3.40
2018-01-06T04:19:28.662Z,3.00
2018-01-06T04:21:57.022Z,2.92
2018-01-06T04:24:26.141Z,2.90
2018-01-06T04:26:54.510Z,2.80
2018-01-06T04:29:23.000Z,2.40
2018-01-06T04:31:51.362Z,4.95
2018-01-06T04:34:19.718Z,2.37
2018-01-06T04:36:48.089Z,2.40
2018-01-06T04:39:16.483Z,2.35
2018-01-06T04:41:44.875Z,2.12
2018-01-06T04:44:13.217Z,1.98
2018-01-06T04:46:41.583Z,2.42
2018-01-06T04:49:09.942Z,2.08
2018-01-06T04:51:38.471Z,1.77
2018-01-06T04:54:06.817Z,1.50
2018-01-06T04:56:35.168Z,1.80
2018-01-06T04:59:03.557Z,2.67
2018-01-06T05:01:31.215Z,2.55
2018-01-06T05:03:59.387Z,2.42
2018-01-06T05:06:27.730Z,2.97
2018-01-06T05:08:56.076Z,2.10
2018-01-06T05:11:24.442Z,2.15
2018-01-06T05:13:52.849Z,2.03
2018-01-06T05:16:21.206Z,1.83
2018-01-06T05:18:49.559Z,2.50
2018-01-06T05:21:17.921Z,2.10
2018-01-06T05:23:46.289Z,2.20
2018-01-06T05:26:14.688Z,2.33
2018-01-06T05:28:43.058Z,2.30
2018-01-06T05:31:11.476Z,2.15
2018-01-06T05:33:39.827Z,2.00
2018-01-06T05:36:08.181Z,2.40
2018-01-06T05:38:36.529Z,2.00
2018-01-06T05:41:04.937Z,2.40
2018-01-06T05:43:33.311Z,2.15
2018-01-06T05:46:01.688Z,2.10
2018-01-06T05:48:30.053Z,3.20
2018-01-06T05:50:58.398Z,2.58
2018-01-06T05:53:26.744Z,2.30
2018-01-06T05:55:55.144Z,3.03
2018-01-06T05:58:23.505Z,3.15
2018-01-06T06:00:51.863Z,2.90
2018-01-06T06:03:20.227Z,2.37
2018-01-06T06:05:48.591Z,2.50
2018-01-06T06:08:17.024Z,2.50
2018-01-06T06:10:45.371Z,4.03
2018-01-06T06:13:13.731Z,2.00
2018-01-06T06:15:42.096Z,2.50
2018-01-06T06:18:10.448Z,2.12
2018-01-06T06:20:38.920Z,2.28
2018-01-06T06:23:07.295Z,2.55
2018-01-06T06:25:35.648Z,2.40
2018-01-06T06:28:03.999Z,2.08
2018-01-06T06:30:32.487Z,2.62
2018-01-06T06:33:01.001Z,2.60
2018-01-06T06:35:29.355Z,5.40
2018-01-06T06:37:57.711Z,2.40
2018-01-06T06:40:26.068Z,3.40
2018-01-06T06:42:54.415Z,2.35
2018-01-06T06:45:22.818Z,2.80
2018-01-06T06:47:51.179Z,2.65
2018-01-06T06:50:19.563Z,2.05
2018-01-06T06:52:47.916Z,2.08
2018-01-06T06:55:16.273Z,1.65
2018-01-06T06:57:44.663Z,1.90
2018-01-06T07:00:13.050Z,2.65
2018-01-06T07:02:41.443Z,2.22
2018-01-06T07:05:10.643Z,2.08
2018-01-06T07:07:39.003Z,2.72
2018-01-06T07:10:07.360Z,4.87
2018-01-06T07:12:35.711Z,6.80
2018-01-06T07:15:04.075Z,5.82
2018-01-06T07:17:32.488Z,6.22
2018-01-06T07:20:00.861Z,7.40
2018-01-06T07:22:29.242Z,5.25
2018-01-06T07:24:57.686Z,5.87
2018-01-06T07:27:26.041Z,4.20
2018-01-06T07:29:54.441Z,3.85
2018-01-06T07:32:22.941Z,4.75
2018-01-06T07:34:51.284Z,4.37
2018-01-06T07:37:19.684Z,6.28
2018-01-06T07:39:48.044Z,6.03
2018-01-06T07:42:16.419Z,5.30
2018-01-06T07:44:44.786Z,4.12
2018-01-06T07:47:13.152Z,4.00
2018-01-06T07:49:41.518Z,4.20
2018-01-06T07:52:09.875Z,4.00
2018-01-06T07:54:38.265Z,4.30
2018-01-06T07:57:06.687Z,4.87
2018-01-06T07:59:35.043Z,2.70
2018-01-06T08:02:03.418Z,2.80
2018-01-06T08:04:31.805Z,2.93
2018-01-06T08:07:00.138Z,2.73
2018-01-06T08:09:28.610Z,2.57
2018-01-06T08:11:56.965Z,3.20
2018-01-06T08:14:25.323Z,2.40
2018-01-06T08:16:53.706Z,2.53
2018-01-06T08:19:22.055Z,2.07
2018-01-06T08:21:50.402Z,2.47
2018-01-06T08:24:18.739Z,2.03
2018-01-06T08:26:47.133Z,2.00
2018-01-06T08:29:15.514Z,1.47
2018-01-06T08:31:43.866Z,1.70
2018-01-06T08:34:12.241Z,2.20
2018-01-06T08:36:40.596Z,3.40
2018-01-06T08:39:09.054Z,2.07
2018-01-06T08:41:37.404Z,2.87
2018-01-06T08:44:05.881Z,2.10
2018-01-06T08:46:34.268Z,2.23
2018-01-06T08:49:02.632Z,2.50
2018-01-06T08:51:31.001Z,1.77
2018-01-06T08:53:59.387Z,1.97
2018-01-06T08:56:27.780Z,2.23
2018-01-06T08:58:56.149Z,1.90
2018-01-06T09:01:24.488Z,2.13
2018-01-06T09:03:52.859Z,1.77
2018-01-06T09:06:21.377Z,2.80
2018-01-06T09:08:49.737Z,1.70
2018-01-06T09:11:18.129Z,2.00
2018-01-06T09:13:46.518Z,1.83
2018-01-06T09:16:14.870Z,1.90
2018-01-06T09:18:43.260Z,2.57
2018-01-06T09:21:11.632Z,1.70
2018-01-06T09:23:40.024Z,2.30
2018-01-06T09:26:08.404Z,2.10
2018-01-06T09:28:36.744Z,1.77
2018-01-06T09:31:05.139Z,2.60
2018-01-06T09:33:33.502Z,2.00
2018-01-06T09:36:01.863Z,4.60
2018-01-06T09:38:30.211Z,2.40
2018-01-06T09:40:58.568Z,3.70
2018-01-06T09:43:26.954Z,1.60
2018-01-06T09:45:55.303Z,1.90
2018-01-06T09:48:23.671Z,2.60
2018-01-06T09:50:52.038Z,3.17
2018-01-06T09:53:20.398Z,2.47
2018-01-06T09:55:48.781Z,2.20
2018-01-06T09:58:17.162Z,2.77
2018-01-06T10:00:45.538Z,2.67
2018-01-06T10:03:13.887Z,2.40
2018-01-06T10:05:42.243Z,2.53
2018-01-06T10:08:10.616Z,2.10
2018-01-06T10:10:39.007Z,2.57
2018-01-06T10:13:07.379Z,2.37
2018-01-06T10:15:35.722Z,2.27
2018-01-06T10:18:04.100Z,2.63
2018-01-06T10:20:32.515Z,2.97
2018-01-06T10:23:00.867Z,3.83
2018-01-06T10:25:29.220Z,4.50
2018-01-06T10:27:57.596Z,4.10
2018-01-06T10:30:25.955Z,5.67
2018-01-06T10:32:54.331Z,5.13
2018-01-06T10:35:22.704Z,5.60
2018-01-06T10:37:51.077Z,4.37
2018-01-06T10:40:19.447Z,4.00
2018-01-06T10:42:47.795Z,3.20
2018-01-06T10:45:16.258Z,3.20
2018-01-06T10:47:44.633Z,2.63
2018-01-06T10:50:12.980Z,2.17
2018-01-06T10:52:41.333Z,2.63
2018-01-06T10:57:44.140Z,3.17
2018-01-06T11:00:12.527Z,1.93
2018-01-06T11:02:40.922Z,2.30
2018-01-06T11:05:09.272Z,2.57
2018-01-06T11:07:37.671Z,2.10
2018-01-06T11:10:06.025Z,2.00
2018-01-06T11:12:34.389Z,2.63
2018-01-06T11:15:02.777Z,2.10
2018-01-06T11:17:31.138Z,1.87
2018-01-06T11:19:59.530Z,2.10
2018-01-06T11:22:27.888Z,2.83
2018-01-06T11:24:56.250Z,2.73
2018-01-06T11:27:24.600Z,2.43
2018-01-06T11:29:52.964Z,2.70
2018-01-06T11:32:21.381Z,2.10
2018-01-06T11:34:49.740Z,2.30
2018-01-06T11:37:18.092Z,2.80
2018-01-06T11:39:46.527Z,2.30
2018-01-06T11:42:14.955Z,3.20
2018-01-06T11:44:43.295Z,3.00
2018-01-06T11:47:11.720Z,3.63
2018-01-06T11:49:40.107Z,4.07
2018-01-06T11:52:08.465Z,3.90
2018-01-06T11:54:36.811Z,5.30
2018-01-06T11:57:05.172Z,6.40
2018-01-06T11:59:33.546Z,7.70
2018-01-06T12:02:02.040Z,6.53
2018-01-06T12:04:30.721Z,7.87
2018-01-06T12:06:59.091Z,5.80
2018-01-06T12:09:27.441Z,2.83
2018-01-06T12:11:56.724Z,3.10
2018-01-06T12:14:25.073Z,3.37
2018-01-06T12:16:53.512Z,2.60
2018-01-06T12:19:21.881Z,2.60
2018-01-06T12:21:50.233Z,2.80
2018-01-06T12:24:18.610Z,2.50
2018-01-06T12:26:47.012Z,2.83
2018-01-06T12:29:15.415Z,3.00
2018-01-06T12:31:43.865Z,3.17
2018-01-06T12:34:12.210Z,2.40
2018-01-06T12:36:40.584Z,3.37
2018-01-06T12:39:08.961Z,3.70
2018-01-06T12:41:37.321Z,3.00
2018-01-06T12:44:05.755Z,2.33
2018-01-06T12:46:34.145Z,3.37
2018-01-06T12:49:02.540Z,2.83
2018-01-06T12:51:30.924Z,2.60
2018-01-06T12:54:00.089Z,2.90
2018-01-06T12:56:28.495Z,2.30
2018-01-06T12:58:56.850Z,2.00
2018-01-06T13:01:25.216Z,3.03
2018-01-06T13:03:53.592Z,2.30
2018-01-06T13:06:21.942Z,1.80
2018-01-06T13:08:50.338Z,2.20
2018-01-06T13:11:20.530Z,2.23
2018-01-06T13:13:48.924Z,2.47
2018-01-06T13:16:17.288Z,2.40
2018-01-06T13:18:45.668Z,2.63
2018-01-06T13:21:14.089Z,2.90
2018-01-06T13:23:42.436Z,3.00
2018-01-06T13:26:10.798Z,2.93
2018-01-06T13:28:39.155Z,2.10
2018-01-06T13:31:07.577Z,2.60
2018-01-06T13:33:35.935Z,2.17
2018-01-06T13:36:04.324Z,1.90
2018-01-06T13:38:32.670Z,3.03
2018-01-06T13:41:01.019Z,2.17
2018-01-06T13:43:29.394Z,2.83
2018-01-06T13:45:57.786Z,2.70
2018-01-06T13:48:26.151Z,2.67
2018-01-06T13:50:54.496Z,3.00
2018-01-06T13:53:22.888Z,2.90
2018-01-06T13:55:51.300Z,2.90
2018-01-06T13:58:19.679Z,2.50
2018-01-06T14:00:48.039Z,2.30
2018-01-06T14:03:16.445Z,2.77
2018-01-06T14:05:44.795Z,2.73
2018-01-06T14:08:13.188Z,2.73
2018-01-06T14:10:41.577Z,2.60
2018-01-06T14:13:09.947Z,1.90
2018-01-06T14:15:38.311Z,2.53
2018-01-06T14:18:06.709Z,2.20
2018-01-06T14:20:35.047Z,2.53
2018-01-06T14:23:03.399Z,2.20
2018-01-06T14:25:31.805Z,2.50
2018-01-06T14:28:00.150Z,2.30
2018-01-06T14:30:28.519Z,2.50
2018-01-06T14:32:56.869Z,2.47
2018-01-06T14:35:25.257Z,2.30
2018-01-06T14:37:53.654Z,2.13
2018-01-06T14:40:22.006Z,2.43
2018-01-06T14:42:50.406Z,2.70
2018-01-06T14:45:18.762Z,2.60
2018-01-06T14:47:47.155Z,2.40
2018-01-06T14:50:15.499Z,2.60
2018-01-06T14:52:43.867Z,2.60
2018-01-06T14:55:12.254Z,3.00
2018-01-06T14:57:40.604Z,2.40
2018-01-06T15:00:08.952Z,2.90
2018-01-06T15:02:37.326Z,3.23
2018-01-06T15:05:05.701Z,2.50
2018-01-06T15:07:34.083Z,2.73
2018-01-06T15:10:02.423Z,2.70
2018-01-06T15:12:30.793Z,7.17
2018-01-06T15:14:59.143Z,3.97
2018-01-06T15:17:27.504Z,3.60
2018-01-06T15:19:55.995Z,3.33
2018-01-06T15:22:25.895Z,2.73
2018-01-06T15:24:54.289Z,3.00
2018-01-06T15:27:22.691Z,3.83
2018-01-06T15:29:51.031Z,3.30
2018-01-06T15:32:19.447Z,3.37
2018-01-06T15:34:47.820Z,3.60
2018-01-06T15:37:16.286Z,3.00
2018-01-06T15:39:44.676Z,2.47
2018-01-06T15:42:13.063Z,2.83
2018-01-06T15:44:41.440Z,2.90
2018-01-06T15:47:09.799Z,2.60
2018-01-06T15:49:38.156Z,3.07
2018-01-06T15:52:06.560Z,2.63
2018-01-06T15:54:34.923Z,3.43
2018-01-06T15:57:03.268Z,3.90
2018-01-06T15:59:31.610Z,4.30
2018-01-06T16:02:00.021Z,3.80
2018-01-06T16:04:28.374Z,3.90
2018-01-06T16:06:56.752Z,4.30
2018-01-06T16:09:25.132Z,3.93
2018-01-06T16:11:53.528Z,3.47
2018-01-06T16:14:22.026Z,3.03
2018-01-06T16:16:50.414Z,3.60
2018-01-06T16:19:18.760Z,3.07
2018-01-06T16:21:47.107Z,3.40
2018-01-06T16:24:15.508Z,3.00
2018-01-06T16:26:43.992Z,4.57
2018-01-06T16:29:12.415Z,4.07
2018-01-06T16:31:40.774Z,3.70
2018-01-06T16:34:09.116Z,4.20
2018-01-06T16:36:37.478Z,3.70
2018-01-06T16:39:05.867Z,4.13
2018-01-06T16:41:34.242Z,3.60
2018-01-06T16:44:02.616Z,4.00
2018-01-06T16:46:30.976Z,3.10
2018-01-06T16:48:59.327Z,3.50
2018-01-06T16:51:27.716Z,3.77
2018-01-06T16:53:56.075Z,4.40
2018-01-06T16:56:24.427Z,3.93
2018-01-06T16:58:52.767Z,3.87
2018-01-06T17:01:21.128Z,4.00
2018-01-06T17:03:49.538Z,4.10
2018-01-06T17:06:17.928Z,4.33
2018-01-06T17:08:46.270Z,3.33
2018-01-06T17:11:14.629Z,3.40
2018-01-06T17:13:42.990Z,3.20
2018-01-06T17:16:11.375Z,3.43
2018-01-06T17:18:39.731Z,2.37
2018-01-06T17:21:08.071Z,2.70
2018-01-06T17:23:36.435Z,3.30
2018-01-06T17:26:04.807Z,3.07
2018-01-06T17:28:33.215Z,4.70
2018-01-06T17:31:01.685Z,3.80
2018-01-06T17:33:30.044Z,3.43
2018-01-06T17:35:58.503Z,4.27
2018-01-06T17:38:27.415Z,3.73
2018-01-06T17:40:55.809Z,3.80
2018-01-06T17:43:24.197Z,4.70
2018-01-06T17:45:52.546Z,3.50
2018-01-06T17:48:20.943Z,3.83
2018-01-06T17:50:49.321Z,4.60
2018-01-06T17:53:17.701Z,4.73
2018-01-06T17:58:21.973Z,4.93
2018-01-06T18:00:50.316Z,4.10
2018-01-06T18:03:18.679Z,6.93
2018-01-06T18:05:47.188Z,5.13
2018-01-06T18:08:15.544Z,4.03
2018-01-06T18:10:44.051Z,4.30
2018-01-06T18:13:12.443Z,5.43
2018-01-06T18:15:40.836Z,5.77
2018-01-06T18:18:09.215Z,5.43
2018-01-06T18:20:37.609Z,6.33
2018-01-06T18:23:06.119Z,6.30
2018-01-06T18:25:34.472Z,6.73
2018-01-06T18:28:02.863Z,6.13
2018-01-06T18:30:31.250Z,5.50
2018-01-06T18:32:59.604Z,5.20
2018-01-06T18:35:27.961Z,5.67
2018-01-06T18:37:56.344Z,6.10
2018-01-06T18:40:24.755Z,5.33
2018-01-06T18:42:53.107Z,4.80
2018-01-06T18:45:21.481Z,4.70
2018-01-06T18:47:49.857Z,4.63
2018-01-06T18:50:21.168Z,5.03
2018-01-06T18:52:49.549Z,5.30
2018-01-06T18:55:17.906Z,5.80
2018-01-06T18:57:46.281Z,5.13
2018-01-06T19:00:14.658Z,5.23
2018-01-06T19:02:42.999Z,5.33
2018-01-06T19:05:11.405Z,6.10
2018-01-06T19:07:39.795Z,5.97
2018-01-06T19:10:08.208Z,6.50
2018-01-06T19:12:36.560Z,6.80
2018-01-06T19:15:04.988Z,8.60
2018-01-06T19:17:33.369Z,9.10
2018-01-06T19:20:01.733Z,11.43
2018-01-06T19:25:04.828Z,10.87
2018-01-06T19:27:33.324Z,10.87
2018-01-06T19:30:01.728Z,12.47
2018-01-06T19:32:30.140Z,12.57
2018-01-06T19:34:58.517Z,11.10
2018-01-06T19:37:26.884Z,11.10
2018-01-06T19:39:55.267Z,10.87
2018-01-06T19:42:23.636Z,15.23
2018-01-06T19:44:52.023Z,12.93
2018-01-06T19:47:20.384Z,12.07
2018-01-06T19:49:48.831Z,13.10
2018-01-06T19:52:17.203Z,11.30
2018-01-06T19:54:45.581Z,11.30
2018-01-06T19:57:13.999Z,11.43
2018-01-06T19:59:42.369Z,12.17
2018-01-06T20:02:10.745Z,11.60
2018-01-06T20:04:39.135Z,11.50
2018-01-06T20:07:07.524Z,13.23
2018-01-06T20:09:35.921Z,12.70
2018-01-06T20:12:04.275Z,13.53
2018-01-06T20:14:32.667Z,14.50
2018-01-06T20:17:01.028Z,12.90
2018-01-06T20:19:29.387Z,13.80
2018-01-06T20:21:57.747Z,13.93
2018-01-06T20:24:26.103Z,15.27
2018-01-06T20:26:54.509Z,15.60
2018-01-06T20:29:22.884Z,14.03
2018-01-06T20:31:51.241Z,14.67
2018-01-06T20:34:19.599Z,16.03
2018-01-06T20:36:47.982Z,16.93
2018-01-06T20:39:16.363Z,15.73
2018-01-06T20:41:44.742Z,15.90
2018-01-06T20:44:13.094Z,16.60
2018-01-06T20:46:41.466Z,14.60
2018-01-06T20:49:09.823Z,15.87
2018-01-06T20:51:38.364Z,14.10
2018-01-06T20:54:06.805Z,13.10
2018-01-06T20:56:35.177Z,14.40
2018-01-06T20:59:03.536Z,13.77
2018-01-06T21:01:31.894Z,13.10
2018-01-06T21:04:00.276Z,13.70
2018-01-06T21:06:28.772Z,14.23
2018-01-06T21:08:57.131Z,14.10
2018-01-06T21:11:25.491Z,14.90
2018-01-06T21:13:53.879Z,14.43
2018-01-06T21:16:22.275Z,18.17
2018-01-06T21:18:50.660Z,15.40
2018-01-06T21:21:19.152Z,17.53
2018-01-06T21:23:47.522Z,17.67
2018-01-06T21:26:15.893Z,20.13
2018-01-06T21:28:44.296Z,18.83
2018-01-06T21:31:12.740Z,19.60
2018-01-06T21:33:41.176Z,21.23
2018-01-06T21:36:09.548Z,20.87
2018-01-06T21:38:37.900Z,21.60
2018-01-06T21:41:07.167Z,21.43
2018-01-06T21:43:35.556Z,24.57
2018-01-06T21:46:03.912Z,23.57
2018-01-06T21:48:32.874Z,22.33
2018-01-06T21:51:01.681Z,22.20
2018-01-06T21:53:31.028Z,25.10
2018-01-06T21:55:59.408Z,23.70
2018-01-06T21:58:27.762Z,25.47
2018-01-06T22:00:56.348Z,25.27
2018-01-06T22:03:24.763Z,25.63
2018-01-06T22:05:53.134Z,23.57
2018-01-06T22:08:21.529Z,22.27
2018-01-06T22:10:49.896Z,25.80
2018-01-06T22:13:18.260Z,23.40
2018-01-06T22:15:46.614Z,23.50
2018-01-06T22:18:14.968Z,22.80
2018-01-06T22:20:43.447Z,19.53
2018-01-06T22:23:11.831Z,19.47
2018-01-06T22:25:40.193Z,20.10
2018-01-06T22:28:08.561Z,21.83
2018-01-06T22:30:36.928Z,21.90
2018-01-06T22:33:05.316Z,23.00
2018-01-06T22:35:33.699Z,20.00
2018-01-06T22:38:02.068Z,22.90
2018-01-06T22:40:30.434Z,23.87
2018-01-06T22:42:58.795Z,22.33
2018-01-06T22:45:27.179Z,23.13
2018-01-06T22:47:55.539Z,20.37
2018-01-06T22:50:23.915Z,19.07
2018-01-06T22:52:52.331Z,20.03
2018-01-06T22:55:20.704Z,20.07
2018-01-06T22:57:49.116Z,20.40
2018-01-06T23:00:17.531Z,19.87
2018-01-06T23:02:45.912Z,19.03
2018-01-06T23:05:14.267Z,20.70
2018-01-06T23:07:42.654Z,19.50
2018-01-06T23:10:11.046Z,17.70
2018-01-06T23:12:39.433Z,17.30
2018-01-06T23:15:07.797Z,18.83
2018-01-06T23:17:36.168Z,18.00
2018-01-06T23:20:04.527Z,18.70
2018-01-06T23:22:32.960Z,19.57
2018-01-06T23:25:01.321Z,18.20
2018-01-06T23:27:29.687Z,16.67
2018-01-06T23:29:58.056Z,15.73
2018-01-06T23:32:26.435Z,14.87
2018-01-06T23:34:54.824Z,15.73
2018-01-06T23:37:23.212Z,17.40
2018-01-06T23:39:51.569Z,17.10
2018-01-06T23:42:19.928Z,16.70
2018-01-06T23:44:48.312Z,15.17
2018-01-06T23:47:16.798Z,15.63
2018-01-06T23:49:45.176Z,16.07
2018-01-06T23:52:13.545Z,17.05
2018-01-06T23:54:41.920Z,15.18
2018-01-06T23:57:10.280Z,15.90
2018-01-06T23:59:38.784Z,15.05
